Time;durP1;ratioP1;P1;durP2;ratioP2;P2;SDS_P1;SDS_P2;PMS_P1;PMS_P2;Temp;Humidity;BMP_temperature;BMP_pressure;BME280_temperature;BME280_humidity;BME280_pressure;Samples;Min_cycle;Max_cycle;Signal;HPM_P1;HPM_P2
2022/09/18 00:01:15;;;;;;;19.33;3.80;;;;;;;;;;5150953;27;20046;-80
2022/09/18 00:03:42;;;;;;;20.17;3.38;;;;;;;;;;5150900;27;20474;-82
2022/09/18 00:06:16;;;;;;;19.80;3.25;;;;;;;;;;5152327;27;20034;-83
2022/09/18 00:08:42;;;;;;;16.80;4.10;;;;;;;;;;5151433;27;20400;-85
2022/09/18 00:11:10;;;;;;;18.10;3.75;;;;;;;;;;5154295;27;20442;-82
2022/09/18 00:13:37;;;;;;;20.95;3.10;;;;;;;;;;5154144;27;20087;-85
2022/09/18 00:16:03;;;;;;;17.90;3.72;;;;;;;;;;5137025;27;20214;-83
2022/09/18 00:18:29;;;;;;;22.40;4.72;;;;;;;;;;5152063;27;20057;-88
2022/09/18 00:21:02;;;;;;;19.98;3.63;;;;;;;;;;5155446;27;20180;-75
2022/09/18 00:23:28;;;;;;;21.90;3.80;;;;;;;;;;5132518;27;20051;-79
2022/09/18 00:25:56;;;;;;;22.23;3.97;;;;;;;;;;5132309;27;20393;-80
2022/09/18 00:28:22;;;;;;;22.48;3.42;;;;;;;;;;5139276;27;20467;-76
2022/09/18 00:30:48;;;;;;;24.70;4.13;;;;;;;;;;5153257;27;20047;-78
2022/09/18 00:33:14;;;;;;;22.75;3.53;;;;;;;;;;5148208;27;20115;-80
2022/09/18 00:35:44;;;;;;;17.77;3.55;;;;;;;;;;5150928;27;20363;-80
2022/09/18 00:38:11;;;;;;;24.67;4.07;;;;;;;;;;5149957;27;20038;-83
2022/09/18 00:40:37;;;;;;;;;;;;;;;;;;5152865;27;20047;-79
2022/09/18 00:43:35;;;;;;;17.73;3.80;;;;;;;;;;5152084;27;20339;-80
2022/09/18 00:46:03;;;;;;;17.05;3.50;;;;;;;;;;5118501;27;20051;-79
2022/09/18 00:48:45;;;;;;;17.50;3.50;;;;;;;;;;5134091;27;20064;-79
2022/09/18 00:51:11;;;;;;;18.73;3.83;;;;;;;;;;5153184;27;20054;-80
2022/09/18 00:53:39;;;;;;;18.08;3.30;;;;;;;;;;5150087;27;20046;-78
2022/09/18 00:56:07;;;;;;;20.05;3.00;;;;;;;;;;5152871;27;20047;-78
2022/09/18 00:58:33;;;;;;;15.55;3.28;;;;;;;;;;5133561;27;20061;-81
2022/09/18 01:01:00;;;;;;;15.32;2.95;;;;;;;;;;5138486;27;20392;-82
2022/09/18 01:03:26;;;;;;;17.70;3.33;;;;;;;;;;5154581;27;20134;-75
2022/09/18 01:06:04;;;;;;;22.05;3.20;;;;;;;;;;5156951;27;20042;-79
2022/09/18 01:08:34;;;;;;;18.52;3.42;;;;;;;;;;5134274;27;20130;-77
2022/09/18 01:11:09;;;;;;;13.27;2.72;;;;;;;;;;5151492;27;20046;-80
2022/09/18 01:13:42;;;;;;;18.13;2.90;;;;;;;;;;5155823;27;20038;-80
2022/09/18 01:16:24;;;;;;;16.60;2.92;;;;;;;;;;5135546;27;20125;-80
2022/09/18 01:19:10;;;;;;;21.10;4.38;;;;;;;;;;5137094;27;20042;-81
2022/09/18 01:21:44;;;;;;;13.68;2.92;;;;;;;;;;5148909;27;20047;-81
2022/09/18 01:24:28;;;;;;;16.83;3.03;;;;;;;;;;5151213;27;20498;-80
2022/09/18 01:26:59;;;;;;;16.52;2.90;;;;;;;;;;5150975;27;20039;-81
2022/09/18 01:29:38;;;;;;;16.15;3.05;;;;;;;;;;5152626;27;20051;-82
2022/09/18 01:32:07;;;;;;;20.30;3.53;;;;;;;;;;5148291;27;21179;-82
2022/09/18 01:34:40;;;;;;;18.85;3.13;;;;;;;;;;5132739;27;20055;-82
2022/09/18 01:37:14;;;;;;;20.65;3.40;;;;;;;;;;5148916;27;20117;-80
2022/09/18 01:39:44;;;;;;;17.35;2.83;;;;;;;;;;5151619;27;20062;-83
2022/09/18 01:42:11;;;;;;;16.58;3.17;;;;;;;;;;5149527;27;20441;-84
2022/09/18 01:44:40;;;;;;;20.30;3.22;;;;;;;;;;5149289;27;20416;-81
2022/09/18 01:47:12;;;;;;;15.30;3.25;;;;;;;;;;5131321;27;20462;-83
2022/09/18 01:49:38;;;;;;;14.93;3.08;;;;;;;;;;5130539;27;20107;-83
2022/09/18 01:52:08;;;;;;;18.42;2.92;;;;;;;;;;5114482;27;20047;-82
2022/09/18 01:54:37;;;;;;;12.93;3.00;;;;;;;;;;5136964;27;20042;-80
2022/09/18 01:57:14;;;;;;;16.48;2.92;;;;;;;;;;5150383;27;20084;-83
2022/09/18 01:59:46;;;;;;;15.63;2.75;;;;;;;;;;5131567;27;20050;-82
2022/09/18 02:02:22;;;;;;;17.35;3.22;;;;;;;;;;5150392;27;20102;-83
2022/09/18 02:04:51;;;;;;;12.52;2.85;;;;;;;;;;5151255;27;20053;-83
2022/09/18 02:07:18;;;;;;;15.18;2.95;;;;;;;;;;5150637;27;20057;-84
2022/09/18 02:09:44;;;;;;;;;;;;;;;;;;5133427;27;20191;-84
2022/09/18 02:12:12;;;;;;;15.38;3.10;;;;;;;;;;5150444;27;20021;-81
2022/09/18 02:14:40;;;;;;;22.13;3.40;;;;;;;;;;5150024;27;20130;-84
2022/09/18 02:17:08;;;;;;;20.77;3.72;;;;;;;;;;5149363;27;20046;-84
2022/09/18 02:19:41;;;;;;;17.50;3.33;;;;;;;;;;5151537;27;20053;-77
2022/09/18 02:22:09;;;;;;;16.13;3.13;;;;;;;;;;5151435;27;20057;-84
2022/09/18 02:24:37;;;;;;;19.63;3.70;;;;;;;;;;5148259;27;20074;-76
2022/09/18 02:27:04;;;;;;;19.38;3.60;;;;;;;;;;5148293;27;20130;-81
2022/09/18 02:29:31;;;;;;;16.90;2.85;;;;;;;;;;5132623;27;20051;-83
2022/09/18 02:31:58;;;;;;;19.00;3.33;;;;;;;;;;5150510;27;20043;-83
2022/09/18 02:34:25;;;;;;;16.17;3.30;;;;;;;;;;5150120;27;20145;-85
2022/09/18 02:37:10;;;;;;;16.70;2.83;;;;;;;;;;5149344;27;20066;-86
2022/09/18 02:39:36;;;;;;;20.38;3.15;;;;;;;;;;5150106;27;20077;-85
2022/09/18 02:42:14;;;;;;;19.42;3.25;;;;;;;;;;5131307;27;20042;-86
2022/09/18 02:44:40;;;;;;;19.45;3.58;;;;;;;;;;5149113;27;20324;-85
2022/09/18 02:47:29;;;;;;;18.33;3.67;;;;;;;;;;5130317;27;20470;-87
2022/09/18 02:49:55;;;;;;;18.67;3.03;;;;;;;;;;5148175;27;20049;-88
2022/09/18 02:52:27;;;;;;;18.35;3.35;;;;;;;;;;5151244;27;20050;-88
2022/09/18 02:55:03;;;;;;;18.17;3.38;;;;;;;;;;5144369;27;20042;-88
2022/09/18 02:57:34;;;;;;;18.85;3.38;;;;;;;;;;5136848;27;20045;-87
2022/09/18 03:00:01;;;;;;;17.35;3.88;;;;;;;;;;5149555;27;20055;-88
2022/09/18 03:02:27;;;;;;;24.33;3.72;;;;;;;;;;5150460;27;20039;-88
2022/09/18 03:04:53;;;;;;;24.73;4.43;;;;;;;;;;5148983;27;20070;-88
2022/09/18 03:07:19;;;;;;;22.70;4.13;;;;;;;;;;5147402;27;20054;-88
2022/09/18 03:09:45;;;;;;;20.70;4.07;;;;;;;;;;5150285;27;20125;-88
2022/09/18 03:12:12;;;;;;;19.55;4.20;;;;;;;;;;5150642;27;20058;-81
2022/09/18 03:14:38;;;;;;;;;;;;;;;;;;5148351;27;20042;-74
2022/09/18 03:17:04;;;;;;;21.83;3.63;;;;;;;;;;5148319;27;20240;-72
2022/09/18 03:19:30;;;;;;;19.80;3.75;;;;;;;;;;5146575;27;20400;-71
2022/09/18 03:21:56;;;;;;;30.33;3.92;;;;;;;;;;5149672;27;20160;-73
2022/09/18 03:24:24;;;;;;;17.52;4.18;;;;;;;;;;5149106;27;20050;-74
2022/09/18 03:26:51;;;;;;;16.42;3.40;;;;;;;;;;5146305;27;20051;-74
2022/09/18 03:29:17;;;;;;;21.38;3.83;;;;;;;;;;5130401;27;20057;-75
2022/09/18 03:31:43;;;;;;;21.75;3.55;;;;;;;;;;5131091;27;20042;-71
2022/09/18 03:34:09;;;;;;;24.92;4.00;;;;;;;;;;5109674;28;20124;-75
2022/09/18 03:36:35;;;;;;;22.23;3.22;;;;;;;;;;5135752;27;20462;-77
2022/09/18 03:39:01;;;;;;;19.58;3.50;;;;;;;;;;5149382;27;20047;-76
2022/09/18 03:41:27;;;;;;;19.55;3.88;;;;;;;;;;5149851;27;20103;-76
2022/09/18 03:43:53;;;;;;;17.65;3.40;;;;;;;;;;5149691;27;20411;-76
2022/09/18 03:46:23;;;;;;;18.27;3.25;;;;;;;;;;5147514;27;20089;-76
2022/09/18 03:48:49;;;;;;;14.77;3.20;;;;;;;;;;5130797;27;20396;-75
2022/09/18 03:51:17;;;;;;;16.08;3.55;;;;;;;;;;5146157;27;20138;-75
2022/09/18 03:53:44;;;;;;;19.00;3.03;;;;;;;;;;5149751;27;20068;-76
2022/09/18 03:56:10;;;;;;;19.70;2.88;;;;;;;;;;5149227;27;20138;-76
2022/09/18 03:58:36;;;;;;;21.83;3.08;;;;;;;;;;5147333;27;20065;-77
2022/09/18 04:01:05;;;;;;;15.20;3.20;;;;;;;;;;5149283;27;20119;-76
2022/09/18 04:03:32;;;;;;;18.55;3.60;;;;;;;;;;5149658;27;20141;-76
2022/09/18 04:05:58;;;;;;;17.13;3.33;;;;;;;;;;5149084;27;20041;-76
2022/09/18 04:08:24;;;;;;;;;;;;;;;;;;5142083;27;20035;-76
2022/09/18 04:10:51;;;;;;;16.50;3.35;;;;;;;;;;5149058;27;20385;-75
2022/09/18 04:13:17;;;;;;;20.00;3.30;;;;;;;;;;5149116;27;20201;-77
2022/09/18 04:15:44;;;;;;;18.77;3.10;;;;;;;;;;5149687;27;20046;-77
2022/09/18 04:18:10;;;;;;;18.00;3.47;;;;;;;;;;5146052;27;20666;-76
2022/09/18 04:20:36;;;;;;;;;;;;;;;;;;5150339;27;20039;-76
2022/09/18 04:23:02;;;;;;;19.88;4.25;;;;;;;;;;5131510;27;20230;-78
2022/09/18 04:25:28;;;;;;;21.75;4.18;;;;;;;;;;5152693;27;20042;-80
2022/09/18 04:27:55;;;;;;;18.95;4.57;;;;;;;;;;5150048;27;20047;-79
2022/09/18 04:30:21;;;;;;;20.83;4.50;;;;;;;;;;5150923;27;20149;-78
2022/09/18 04:32:47;;;;;;;17.08;4.63;;;;;;;;;;5153125;27;20078;-79
2022/09/18 04:35:13;;;;;;;19.40;4.80;;;;;;;;;;5152913;27;20141;-80
2022/09/18 04:37:39;;;;;;;19.90;4.60;;;;;;;;;;5151975;27;20042;-80
2022/09/18 04:40:06;;;;;;;17.00;4.32;;;;;;;;;;5146699;27;20526;-78
2022/09/18 04:42:32;;;;;;;17.50;5.18;;;;;;;;;;5139786;27;20101;-77
2022/09/18 04:44:58;;;;;;;20.05;5.07;;;;;;;;;;5149167;27;20047;-77
2022/09/18 04:47:24;;;;;;;23.92;4.78;;;;;;;;;;5132621;27;20050;-75
2022/09/18 04:49:51;;;;;;;20.83;4.05;;;;;;;;;;5152415;27;20382;-76
2022/09/18 04:52:18;;;;;;;18.73;3.72;;;;;;;;;;5149899;27;20095;-78
2022/09/18 04:54:44;;;;;;;15.48;3.50;;;;;;;;;;5133419;27;20043;-77
2022/09/18 04:57:10;;;;;;;18.25;4.05;;;;;;;;;;5132571;27;20078;-77
2022/09/18 04:59:36;;;;;;;20.42;5.05;;;;;;;;;;5133218;27;20081;-77
2022/09/18 05:02:02;;;;;;;16.65;4.00;;;;;;;;;;5131713;27;20141;-77
2022/09/18 05:04:28;;;;;;;17.40;3.53;;;;;;;;;;5134277;27;20098;-78
2022/09/18 05:06:55;;;;;;;14.88;3.25;;;;;;;;;;5130848;27;20053;-74
2022/09/18 05:09:21;;;;;;;13.65;3.03;;;;;;;;;;5151571;27;20470;-77
2022/09/18 05:11:47;;;;;;;12.18;2.60;;;;;;;;;;5133757;27;20380;-74
2022/09/18 05:14:13;;;;;;;21.58;3.55;;;;;;;;;;5152024;27;20064;-73
2022/09/18 05:16:40;;;;;;;18.60;4.15;;;;;;;;;;5144288;27;20046;-74
2022/09/18 05:19:06;;;;;;;16.77;3.35;;;;;;;;;;5152100;27;20094;-72
2022/09/18 05:21:32;;;;;;;14.45;3.13;;;;;;;;;;5152434;27;20146;-72
2022/09/18 05:23:58;;;;;;;16.30;3.47;;;;;;;;;;5151621;27;20565;-68
2022/09/18 05:26:25;;;;;;;15.15;2.80;;;;;;;;;;5148009;27;20118;-73
2022/09/18 05:28:51;;;;;;;15.60;3.28;;;;;;;;;;5150975;27;20114;-73
2022/09/18 05:31:17;;;;;;;11.38;2.70;;;;;;;;;;5129749;27;20065;-73
2022/09/18 05:33:44;;;;;;;10.05;2.85;;;;;;;;;;5149957;27;20055;-74
2022/09/18 05:36:10;;;;;;;14.35;3.05;;;;;;;;;;5132375;27;20058;-71
2022/09/18 05:38:36;;;;;;;18.08;3.08;;;;;;;;;;5148459;27;20039;-75
2022/09/18 05:41:02;;;;;;;16.30;3.00;;;;;;;;;;5150453;27;20099;-75
2022/09/18 05:43:28;;;;;;;11.85;2.58;;;;;;;;;;5127841;27;20466;-76
2022/09/18 05:45:54;;;;;;;11.48;3.03;;;;;;;;;;5091632;27;20049;-76
2022/09/18 05:48:21;;;;;;;10.35;2.40;;;;;;;;;;5149015;27;20050;-75
2022/09/18 05:50:50;;;;;;;9.85;2.30;;;;;;;;;;5129045;27;20191;-77
2022/09/18 05:53:20;;;;;;;18.10;2.90;;;;;;;;;;5127583;27;20051;-74
2022/09/18 05:55:46;;;;;;;11.48;2.25;;;;;;;;;;5119594;27;20034;-73
2022/09/18 05:58:14;;;;;;;17.20;2.60;;;;;;;;;;5149567;27;20035;-75
2022/09/18 06:00:40;;;;;;;13.95;2.92;;;;;;;;;;5147842;27;20042;-74
2022/09/18 06:03:08;;;;;;;16.30;2.58;;;;;;;;;;5148745;27;20043;-76
2022/09/18 06:05:36;;;;;;;15.10;2.83;;;;;;;;;;5149113;27;20372;-74
2022/09/18 06:08:03;;;;;;;16.92;2.70;;;;;;;;;;5149011;27;20068;-66
2022/09/18 06:10:34;;;;;;;20.00;3.30;;;;;;;;;;5151460;27;20054;-68
2022/09/18 06:13:19;;;;;;;14.38;3.20;;;;;;;;;;5151338;27;20103;-70
2022/09/18 06:15:51;;;;;;;14.55;2.75;;;;;;;;;;5151530;27;20351;-76
2022/09/18 06:18:17;;;;;;;16.25;3.55;;;;;;;;;;5128076;27;20061;-69
2022/09/18 06:20:50;;;;;;;19.13;3.10;;;;;;;;;;5147212;27;20068;-70
2022/09/18 06:23:16;;;;;;;18.05;3.65;;;;;;;;;;5150852;27;20420;-71
2022/09/18 06:25:42;;;;;;;18.45;3.05;;;;;;;;;;5132598;27;20410;-70
2022/09/18 06:28:08;;;;;;;21.67;4.30;;;;;;;;;;5150696;27;20087;-70
2022/09/18 06:30:35;;;;;;;19.60;3.65;;;;;;;;;;5142329;27;20099;-72
2022/09/18 06:33:03;;;;;;;17.70;3.83;;;;;;;;;;5132175;27;20065;-72
2022/09/18 06:35:29;;;;;;;16.88;3.97;;;;;;;;;;5150518;27;20060;-71
2022/09/18 06:37:55;;;;;;;16.55;3.17;;;;;;;;;;5132892;27;20078;-72
2022/09/18 06:40:22;;;;;;;16.95;3.17;;;;;;;;;;5148228;27;20075;-73
2022/09/18 06:42:54;;;;;;;16.45;3.10;;;;;;;;;;5149593;27;20046;-72
2022/09/18 06:45:20;;;;;;;18.08;2.92;;;;;;;;;;5149263;27;20122;-73
2022/09/18 06:47:46;;;;;;;10.18;2.30;;;;;;;;;;5149535;27;20034;-75
2022/09/18 06:50:12;;;;;;;16.77;2.67;;;;;;;;;;5148173;27;20047;-72
2022/09/18 06:52:38;;;;;;;18.13;3.03;;;;;;;;;;5149469;27;20046;-74
2022/09/18 06:55:06;;;;;;;14.88;2.70;;;;;;;;;;5145487;27;20039;-72
2022/09/18 06:57:32;;;;;;;17.70;2.72;;;;;;;;;;5142349;27;20042;-73
2022/09/18 06:59:58;;;;;;;19.02;3.03;;;;;;;;;;5146874;27;20046;-75
2022/09/18 07:02:24;;;;;;;20.50;3.00;;;;;;;;;;5146051;27;20123;-74
2022/09/18 07:04:51;;;;;;;17.42;2.70;;;;;;;;;;5148582;27;20455;-76
2022/09/18 07:07:17;;;;;;;14.40;2.80;;;;;;;;;;5143088;27;20047;-75
2022/09/18 07:09:43;;;;;;;15.13;3.13;;;;;;;;;;5119362;27;20054;-76
2022/09/18 07:12:10;;;;;;;12.77;2.15;;;;;;;;;;5122099;27;20051;-73
2022/09/18 07:14:36;;;;;;;23.60;3.42;;;;;;;;;;5134577;27;20175;-75
2022/09/18 07:17:02;;;;;;;11.90;3.00;;;;;;;;;;5128125;27;20130;-75
2022/09/18 07:19:28;;;;;;;17.27;3.25;;;;;;;;;;5147654;27;20460;-75
2022/09/18 07:21:54;;;;;;;12.77;2.65;;;;;;;;;;5143173;27;20058;-75
2022/09/18 07:24:20;;;;;;;15.23;2.72;;;;;;;;;;5145170;27;20047;-75
2022/09/18 07:26:46;;;;;;;14.85;2.88;;;;;;;;;;5120437;27;20164;-75
2022/09/18 07:29:12;;;;;;;15.70;2.33;;;;;;;;;;5149037;27;20042;-73
2022/09/18 07:31:38;;;;;;;16.40;2.97;;;;;;;;;;5124594;28;20522;-75
2022/09/18 07:34:06;;;;;;;15.75;3.00;;;;;;;;;;5145285;27;20090;-75
2022/09/18 07:36:33;;;;;;;18.30;2.78;;;;;;;;;;5125080;27;20123;-76
2022/09/18 07:38:59;;;;;;;14.20;2.63;;;;;;;;;;5149292;27;20078;-76
2022/09/18 07:41:25;;;;;;;12.00;2.47;;;;;;;;;;5146680;27;20043;-76
2022/09/18 07:43:51;;;;;;;16.50;3.70;;;;;;;;;;5127423;27;20053;-73
2022/09/18 07:46:17;;;;;;;20.23;4.97;;;;;;;;;;5117547;27;20065;-72
2022/09/18 07:48:43;;;;;;;18.30;5.70;;;;;;;;;;5144867;27;20074;-73
2022/09/18 07:51:09;;;;;;;20.75;5.25;;;;;;;;;;5130698;27;20396;-72
2022/09/18 07:53:36;;;;;;;15.55;4.60;;;;;;;;;;5129100;27;20075;-73
2022/09/18 07:56:06;;;;;;;19.98;5.00;;;;;;;;;;5149231;27;20065;-73
2022/09/18 07:58:32;;;;;;;21.00;5.57;;;;;;;;;;5150341;27;20046;-71
2022/09/18 08:01:01;;;;;;;17.73;4.43;;;;;;;;;;5147431;27;20051;-74
2022/09/18 08:03:28;;;;;;;18.60;5.10;;;;;;;;;;5153065;27;20050;-70
2022/09/18 08:05:54;;;;;;;17.85;4.95;;;;;;;;;;5151028;27;20051;-71
2022/09/18 08:08:20;;;;;;;;;;;;;;;;;;5150652;27;20115;-70
2022/09/18 08:10:46;;;;;;;19.65;5.65;;;;;;;;;;5125461;27;20425;-72
2022/09/18 08:13:12;;;;;;;22.95;6.50;;;;;;;;;;5153595;27;20137;-72
2022/09/18 08:15:39;;;;;;;15.90;4.70;;;;;;;;;;5150807;27;20068;-72
2022/09/18 08:18:06;;;;;;;17.90;5.35;;;;;;;;;;5153330;27;20046;-74
2022/09/18 08:20:32;;;;;;;16.17;4.97;;;;;;;;;;5149529;27;20106;-72
2022/09/18 08:22:59;;;;;;;18.40;5.40;;;;;;;;;;5135529;27;20122;-70
2022/09/18 08:25:26;;;;;;;24.05;5.97;;;;;;;;;;5119179;27;20177;-70
2022/09/18 08:27:52;;;;;;;18.20;5.20;;;;;;;;;;5143309;27;20043;-73
2022/09/18 08:30:18;;;;;;;15.48;4.47;;;;;;;;;;5144470;27;20093;-68
2022/09/18 08:32:44;;;;;;;19.08;4.70;;;;;;;;;;5151518;27;20074;-70
2022/09/18 08:35:11;;;;;;;15.50;4.18;;;;;;;;;;5153454;27;20137;-69
2022/09/18 08:37:38;;;;;;;10.88;3.17;;;;;;;;;;5143730;27;20039;-71
2022/09/18 08:40:04;;;;;;;19.40;3.45;;;;;;;;;;5132669;27;20059;-68
2022/09/18 08:42:47;;;;;;;14.60;2.90;;;;;;;;;;5146433;27;20118;-69
2022/09/18 08:45:16;;;;;;;17.48;3.10;;;;;;;;;;5135908;27;20045;-70
2022/09/18 08:47:46;;;;;;;17.23;3.30;;;;;;;;;;5138598;27;20091;-69
2022/09/18 08:50:17;;;;;;;16.23;2.83;;;;;;;;;;5138832;27;20141;-70
2022/09/18 08:52:46;;;;;;;14.38;2.88;;;;;;;;;;5145422;27;20034;-69
2022/09/18 08:55:15;;;;;;;12.02;3.05;;;;;;;;;;5138407;27;20085;-69
2022/09/18 08:57:50;;;;;;;16.60;3.13;;;;;;;;;;5131934;27;20058;-69
2022/09/18 09:00:21;;;;;;;17.58;3.10;;;;;;;;;;5147324;27;20049;-69
2022/09/18 09:02:47;;;;;;;16.52;3.30;;;;;;;;;;5136703;27;20035;-68
2022/09/18 09:05:27;;;;;;;15.43;3.10;;;;;;;;;;5136476;27;20347;-68
2022/09/18 09:08:12;;;;;;;22.98;3.75;;;;;;;;;;5151912;27;20104;-68
2022/09/18 09:10:41;;;;;;;17.73;3.35;;;;;;;;;;5143640;27;20413;-68
2022/09/18 09:13:26;;;;;;;19.02;3.20;;;;;;;;;;5112525;27;20073;-65
2022/09/18 09:16:04;;;;;;;17.50;3.10;;;;;;;;;;5138042;27;20102;-67
2022/09/18 09:18:42;;;;;;;20.50;3.70;;;;;;;;;;5146014;27;20069;-71
2022/09/18 09:21:17;;;;;;;17.77;3.58;;;;;;;;;;5138288;27;20046;-67
2022/09/18 09:24:05;;;;;;;18.75;3.30;;;;;;;;;;5150826;27;20030;-66
2022/09/18 09:26:31;;;;;;;19.67;3.28;;;;;;;;;;5123053;27;20046;-67
2022/09/18 09:28:58;;;;;;;;;;;;;;;;;;5126573;27;20127;-69
2022/09/18 09:31:26;;;;;;;18.05;3.55;;;;;;;;;;5143013;27;19919;-70
2022/09/18 09:34:11;;;;;;;19.63;4.40;;;;;;;;;;5125615;27;20051;-71
2022/09/18 09:36:42;;;;;;;16.67;3.58;;;;;;;;;;5135439;27;20088;-78
2022/09/18 09:39:19;;;;;;;16.00;3.00;;;;;;;;;;5145908;27;20521;-74
2022/09/18 09:41:55;;;;;;;18.10;3.45;;;;;;;;;;5144018;27;20148;-72
2022/09/18 09:44:24;;;;;;;17.02;2.92;;;;;;;;;;5137908;27;20043;-79
2022/09/18 09:46:53;;;;;;;17.55;3.38;;;;;;;;;;5143646;27;20046;-75
2022/09/18 09:49:24;;;;;;;20.60;3.00;;;;;;;;;;5139907;27;20047;-75
2022/09/18 09:52:02;;;;;;;17.92;3.35;;;;;;;;;;5137965;27;20043;-74
2022/09/18 09:54:28;;;;;;;22.42;3.45;;;;;;;;;;5151938;27;20042;-74
2022/09/18 09:57:00;;;;;;;18.30;3.10;;;;;;;;;;5143643;27;20165;-73
2022/09/18 09:59:26;;;;;;;15.18;3.42;;;;;;;;;;5128440;27;20038;-74
2022/09/18 10:01:57;;;;;;;18.75;3.03;;;;;;;;;;5130239;27;20440;-75
2022/09/18 10:04:41;;;;;;;13.82;3.30;;;;;;;;;;5146447;27;20078;-76
2022/09/18 10:07:24;;;;;;;20.75;3.70;;;;;;;;;;5142253;27;20485;-78
2022/09/18 10:09:53;;;;;;;22.08;3.80;;;;;;;;;;5151172;27;20161;-71
2022/09/18 10:12:55;;;;;;;20.83;4.47;;;;;;;;;;5151654;27;20378;-75
2022/09/18 10:15:24;;;;;;;20.60;3.40;;;;;;;;;;5103299;28;20395;-77
2022/09/18 10:17:56;;;;;;;22.13;3.78;;;;;;;;;;5143564;27;20115;-80
2022/09/18 10:20:26;;;;;;;21.10;4.35;;;;;;;;;;5146934;27;20479;-77
2022/09/18 10:22:53;;;;;;;18.17;4.20;;;;;;;;;;5134777;27;20042;-76
2022/09/18 10:25:20;;;;;;;;;;;;;;;;;;5152409;27;20051;-77
2022/09/18 10:27:46;;;;;;;24.67;4.07;;;;;;;;;;5146762;27;20395;-75
2022/09/18 10:30:13;;;;;;;17.17;4.30;;;;;;;;;;5149346;27;20049;-77
2022/09/18 10:32:43;;;;;;;23.42;3.63;;;;;;;;;;5150430;27;20087;-78
2022/09/18 10:35:41;;;;;;;16.27;3.33;;;;;;;;;;5149297;27;20080;-75
2022/09/18 10:38:26;;;;;;;21.90;3.80;;;;;;;;;;5134273;27;20121;-75
2022/09/18 10:40:52;;;;;;;23.10;4.63;;;;;;;;;;5146761;27;20131;-69
2022/09/18 10:43:18;;;;;;;24.42;4.50;;;;;;;;;;5115777;27;20051;-70
2022/09/18 10:45:50;;;;;;;25.25;4.20;;;;;;;;;;5114160;27;20425;-70
2022/09/18 10:48:22;;;;;;;26.85;4.55;;;;;;;;;;5139035;27;20137;-71
2022/09/18 10:50:55;;;;;;;22.08;3.80;;;;;;;;;;5134619;27;20057;-71
2022/09/18 10:53:31;;;;;;;21.92;4.15;;;;;;;;;;5139240;27;20095;-74
2022/09/18 10:56:15;;;;;;;16.03;3.13;;;;;;;;;;5131687;27;20047;-73
2022/09/18 10:58:42;;;;;;;17.90;3.13;;;;;;;;;;5147651;27;20043;-72
2022/09/18 11:01:09;;;;;;;18.95;3.63;;;;;;;;;;5139951;27;20055;-72
2022/09/18 11:03:47;;;;;;;17.83;3.40;;;;;;;;;;5149277;27;20043;-75
2022/09/18 11:06:24;;;;;;;18.23;3.00;;;;;;;;;;5131370;27;20047;-73
2022/09/18 11:08:51;;;;;;;19.00;3.47;;;;;;;;;;5116402;27;20066;-76
2022/09/18 11:11:31;;;;;;;20.10;3.70;;;;;;;;;;5133857;27;20187;-74
2022/09/18 11:14:05;;;;;;;17.40;3.67;;;;;;;;;;5142635;27;20054;-76
2022/09/18 11:16:46;;;;;;;16.60;3.50;;;;;;;;;;5133242;27;20107;-74
2022/09/18 11:19:23;;;;;;;20.05;3.83;;;;;;;;;;5138878;27;20138;-74
2022/09/18 11:21:49;;;;;;;;;;;;;;;;;;5147897;27;20069;-73
2022/09/18 11:24:17;;;;;;;18.35;3.22;;;;;;;;;;5139851;27;19919;-74
2022/09/18 11:26:51;;;;;;;17.02;3.45;;;;;;;;;;5133559;27;20494;-74
2022/09/18 11:29:23;;;;;;;13.85;3.25;;;;;;;;;;5146812;27;20062;-73
2022/09/18 11:31:54;;;;;;;20.13;3.40;;;;;;;;;;5127821;27;20039;-75
2022/09/18 11:34:28;;;;;;;14.93;3.22;;;;;;;;;;5148494;27;20157;-82
2022/09/18 11:37:15;;;;;;;18.05;2.97;;;;;;;;;;5149191;27;20126;-77
2022/09/18 11:39:42;;;;;;;12.95;2.75;;;;;;;;;;5150781;27;20086;-72
2022/09/18 11:42:10;;;;;;;16.60;2.78;;;;;;;;;;5128087;27;20380;-77
2022/09/18 11:44:36;;;;;;;20.15;3.63;;;;;;;;;;5150580;27;20043;-76
2022/09/18 11:47:03;;;;;;;14.60;3.33;;;;;;;;;;5145588;27;20053;-75
2022/09/18 11:49:44;;;;;;;17.80;3.22;;;;;;;;;;5146449;27;20452;-73
2022/09/18 11:52:18;;;;;;;16.65;3.63;;;;;;;;;;5147420;27;20121;-75
2022/09/18 11:54:59;;;;;;;21.35;3.38;;;;;;;;;;5147504;27;20075;-72
2022/09/18 11:57:28;;;;;;;13.82;3.40;;;;;;;;;;5145929;27;20047;-74
2022/09/18 11:59:56;;;;;;;15.85;3.30;;;;;;;;;;5143948;27;20064;-74
2022/09/18 12:02:25;;;;;;;13.32;2.55;;;;;;;;;;5103606;27;20091;-74
2022/09/18 12:05:05;;;;;;;11.15;2.55;;;;;;;;;;5115507;28;20461;-77
2022/09/18 12:07:52;;;;;;;11.73;2.90;;;;;;;;;;5130103;27;20126;-68
2022/09/18 12:10:18;;;;;;;19.75;3.45;;;;;;;;;;5111101;28;20058;-68
2022/09/18 12:12:44;;;;;;;17.30;3.17;;;;;;;;;;5128911;28;20126;-68
2022/09/18 12:15:10;;;;;;;;;;;;;;;;;;5142647;27;20062;-68
2022/09/18 12:17:39;;;;;;;16.63;3.05;;;;;;;;;;5131046;27;19979;-69
2022/09/18 12:20:08;;;;;;;17.27;3.15;;;;;;;;;;5149151;27;20510;-69
2022/09/18 12:22:38;;;;;;;17.95;3.20;;;;;;;;;;5149305;27;20058;-69
2022/09/18 12:25:14;;;;;;;12.20;2.58;;;;;;;;;;5146715;27;20138;-69
2022/09/18 12:27:41;;;;;;;16.48;2.70;;;;;;;;;;5149563;27;20073;-68
2022/09/18 12:30:15;;;;;;;12.43;2.92;;;;;;;;;;5149556;27;20086;-68
2022/09/18 12:32:46;;;;;;;12.80;2.50;;;;;;;;;;5149119;27;20193;-68
2022/09/18 12:35:30;;;;;;;12.82;2.38;;;;;;;;;;5147810;27;20047;-73
2022/09/18 12:38:16;;;;;;;14.63;2.75;;;;;;;;;;5148414;27;20039;-70
2022/09/18 12:41:01;;;;;;;15.02;3.55;;;;;;;;;;5152146;27;20096;-65
2022/09/18 12:43:37;;;;;;;16.23;3.15;;;;;;;;;;5152708;27;20153;-66
2022/09/18 12:46:07;;;;;;;11.30;2.50;;;;;;;;;;5131177;27;20526;-68
2022/09/18 12:48:33;;;;;;;13.30;2.50;;;;;;;;;;5151215;27;20050;-68
2022/09/18 12:50:59;;;;;;;11.55;2.20;;;;;;;;;;5151891;27;20046;-66
2022/09/18 12:53:43;;;;;;;11.18;2.42;;;;;;;;;;5133930;27;20066;-70
2022/09/18 12:56:12;;;;;;;10.25;2.20;;;;;;;;;;5133142;27;20233;-69
2022/09/18 12:58:42;;;;;;;13.38;2.78;;;;;;;;;;5150919;27;20385;-67
2022/09/18 13:01:13;;;;;;;13.55;3.00;;;;;;;;;;5152078;27;20051;-65
2022/09/18 13:03:41;;;;;;;15.60;2.55;;;;;;;;;;5152332;27;20061;-66
2022/09/18 13:06:11;;;;;;;12.55;2.45;;;;;;;;;;5151873;27;20138;-68
2022/09/18 13:08:40;;;;;;;14.13;2.72;;;;;;;;;;5150894;27;20099;-66
2022/09/18 13:11:25;;;;;;;13.85;2.60;;;;;;;;;;5151628;27;20054;-67
2022/09/18 13:14:04;;;;;;;14.13;2.50;;;;;;;;;;5152276;27;20047;-65
2022/09/18 13:16:34;;;;;;;17.35;2.78;;;;;;;;;;5151963;27;20078;-67
2022/09/18 13:19:03;;;;;;;13.30;2.65;;;;;;;;;;5150348;27;20103;-68
2022/09/18 13:21:36;;;;;;;20.77;2.90;;;;;;;;;;5131575;27;20045;-72
2022/09/18 13:24:03;;;;;;;12.38;2.58;;;;;;;;;;5133188;27;20043;-74
2022/09/18 13:26:35;;;;;;;13.23;2.33;;;;;;;;;;5134671;27;20050;-74
2022/09/18 13:29:03;;;;;;;11.88;2.40;;;;;;;;;;5152654;27;20083;-75
2022/09/18 13:31:30;;;;;;;10.32;2.60;;;;;;;;;;5145081;27;20038;-73
2022/09/18 13:34:03;;;;;;;11.55;2.63;;;;;;;;;;5151702;27;20198;-72
2022/09/18 13:36:32;;;;;;;14.70;3.08;;;;;;;;;;5152347;27;20046;-73
2022/09/18 13:39:00;;;;;;;18.58;3.38;;;;;;;;;;5150955;27;20061;-69
2022/09/18 13:41:27;;;;;;;16.88;3.10;;;;;;;;;;5151357;27;20050;-72
2022/09/18 13:44:01;;;;;;;14.18;3.10;;;;;;;;;;5131798;27;20078;-75
2022/09/18 13:46:39;;;;;;;14.60;2.70;;;;;;;;;;5149065;27;20142;-72
2022/09/18 13:49:24;;;;;;;16.27;3.08;;;;;;;;;;5150819;27;20087;-72
2022/09/18 13:51:52;;;;;;;15.38;2.80;;;;;;;;;;5150978;27;20062;-72
2022/09/18 13:54:21;;;;;;;12.45;3.08;;;;;;;;;;5131819;27;20049;-71
2022/09/18 13:57:13;;;;;;;17.13;3.20;;;;;;;;;;5149338;27;20517;-71
2022/09/18 13:59:52;;;;;;;13.90;3.22;;;;;;;;;;5150212;27;20121;-71
2022/09/18 14:02:38;;;;;;;16.13;3.00;;;;;;;;;;5129614;27;20459;-72
2022/09/18 14:05:09;;;;;;;14.70;3.35;;;;;;;;;;5150515;27;20487;-70
2022/09/18 14:07:35;;;;;;;14.60;3.10;;;;;;;;;;5115110;27;20094;-69
2022/09/18 14:10:22;;;;;;;19.05;3.10;;;;;;;;;;5095793;28;20497;-73
2022/09/18 14:13:03;;;;;;;13.00;2.97;;;;;;;;;;5084101;28;20060;-69
2022/09/18 14:15:29;;;;;;;14.07;2.92;;;;;;;;;;5067657;28;20159;-70
2022/09/18 14:18:05;;;;;;;15.38;3.08;;;;;;;;;;5069553;28;20044;-72
2022/09/18 14:20:32;;;;;;;15.00;3.15;;;;;;;;;;5087388;28;20055;-67
2022/09/18 14:23:18;;;;;;;19.40;3.20;;;;;;;;;;5089036;28;20044;-72
2022/09/18 14:25:45;;;;;;;19.20;3.42;;;;;;;;;;5088300;28;20126;-70
2022/09/18 14:28:13;;;;;;;15.57;3.33;;;;;;;;;;5086696;28;20181;-70
2022/09/18 14:30:39;;;;;;;13.65;3.30;;;;;;;;;;5086252;28;20056;-71
2022/09/18 14:33:10;;;;;;;16.92;3.88;;;;;;;;;;5086569;28;20056;-70
2022/09/18 14:35:40;;;;;;;16.98;3.67;;;;;;;;;;5088699;28;20427;-71
2022/09/18 14:38:26;;;;;;;20.48;3.95;;;;;;;;;;5088293;28;20040;-69
2022/09/18 14:41:17;;;;;;;17.52;3.58;;;;;;;;;;5086664;28;20048;-68
2022/09/18 14:44:01;;;;;;;17.05;3.85;;;;;;;;;;5088674;28;20096;-67
2022/09/18 14:46:28;;;;;;;16.30;2.97;;;;;;;;;;5088996;28;20101;-69
2022/09/18 14:48:54;;;;;;;;;;;;;;;;;;5088898;28;20525;-68
2022/09/18 14:51:24;;;;;;;11.95;2.60;;;;;;;;;;5085057;28;20037;-77